If you wish to contribute or participate in the discussions about articles you are invited to join SKYbrary as a registered user

 Actions

Holzdorf Air Base

From SKYbrary Wiki

ETSH
Airport
ICAO: ETSH
Summary
Name Holzdorf Air Base
Region Europe
Territory Germany DE.gif
Location Holzdorf, Saxony-Anhalt
Serving
Coordinates 51° 46' 4.33" N, 13° 10' 3.34" E
Runways
Designator Length Width Surface ROPS
9/27 2419 m7,936.352 ft
30 m98.425 ft
PEM /


METAR
Observation ETSH 150220Z 10002KT 9999 SCT300 04/03 Q1025 BLU+
Station Holzdorf
Date/Time 15 September 2019 02:20:00
Wind direction 100°
Wind speed 02 kts
Lowest cloud amount scattered clouds
Temperature 4°C
Dew point 3°C
Humidity 93%
QNH 1025 hPa
Weather condition n/a

Holzdorf Air Base

ICAO: ETSH IATA: ---

Description

Holzdorf Air Base is a military airfield operated by the German Air Force. It is located 3 km1.62 nm
3,000 m
9,842.52 ft
east of Holzdorf, Saxony-Anhalt.

Maps

Terrain

Loading map...

Airport Layout

Loading map...



Accidents & Serious Incidents at or in vicinity of ETSH

None on SKYbrary